createdAt,value
2023-04-21T00:00:27.347Z,8.30
2023-04-21T00:01:20.667Z,7.90
2023-04-21T00:01:55.510Z,8.00
2023-04-21T00:02:29.358Z,8.20
2023-04-21T00:03:03.921Z,8.10
2023-04-21T00:03:42.139Z,8.20
2023-04-21T00:04:15.971Z,8.30
2023-04-21T00:04:50.177Z,8.00
2023-04-21T00:05:25.132Z,8.10
2023-04-21T00:05:59.047Z,8.20
2023-04-21T00:06:33.143Z,8.10
2023-04-21T00:07:06.874Z,7.50
2023-04-21T00:07:41.967Z,8.40
2023-04-21T00:08:16.210Z,8.00
2023-04-21T00:08:50.461Z,8.50
2023-04-21T00:09:23.968Z,8.40
2023-04-21T00:09:59.180Z,8.80
2023-04-21T00:10:36.020Z,9.10
2023-04-21T00:11:15.438Z,9.30
2023-04-21T00:11:48.953Z,9.10
2023-04-21T00:12:22.508Z,8.80
2023-04-21T00:12:56.355Z,9.40
2023-04-21T00:13:29.678Z,8.90
2023-04-21T00:14:03.510Z,8.70
2023-04-21T00:14:36.973Z,8.70
2023-04-21T00:15:10.674Z,8.60
2023-04-21T00:15:44.237Z,8.70
2023-04-21T00:16:17.670Z,8.10
2023-04-21T00:16:53.111Z,8.10
2023-04-21T00:17:26.512Z,8.10
2023-04-21T00:17:59.863Z,8.50
2023-04-21T00:18:33.649Z,8.10
2023-04-21T00:19:07.699Z,8.10
2023-04-21T00:19:41.450Z,8.40
2023-04-21T00:20:15.652Z,8.70
2023-04-21T00:20:49.072Z,8.00
2023-04-21T00:21:22.749Z,8.10
2023-04-21T00:22:00.123Z,8.30
2023-04-21T00:22:33.639Z,8.30
2023-04-21T00:23:07.090Z,9.20
2023-04-21T00:23:41.718Z,8.60
2023-04-21T00:24:15.247Z,8.80
2023-04-21T00:24:48.872Z,9.10
2023-04-21T00:25:22.694Z,9.30
2023-04-21T00:25:56.167Z,9.20
2023-04-21T00:26:29.405Z,9.10
2023-04-21T00:27:04.060Z,8.90
2023-04-21T00:27:37.607Z,9.90
2023-04-21T00:28:11.083Z,9.40
2023-04-21T00:28:44.501Z,9.60
2023-04-21T00:29:18.216Z,9.70
2023-04-21T00:29:52.216Z,9.50
2023-04-21T00:30:28.744Z,9.80
2023-04-21T00:31:02.237Z,9.50
2023-04-21T00:31:36.614Z,9.60
2023-04-21T00:32:12.024Z,10.20
2023-04-21T00:32:45.586Z,9.20
2023-04-21T00:33:19.116Z,9.50
2023-04-21T00:33:52.554Z,9.30
2023-04-21T00:34:27.916Z,9.50
2023-04-21T00:35:01.273Z,9.70
2023-04-21T00:35:34.911Z,9.70
2023-04-21T00:36:08.427Z,9.60
2023-04-21T00:36:41.836Z,9.50
2023-04-21T00:37:15.515Z,9.40
2023-04-21T00:37:50.390Z,9.50
2023-04-21T00:38:23.867Z,9.20
2023-04-21T00:38:57.553Z,9.00
2023-04-21T00:39:31.172Z,9.70
2023-04-21T00:40:05.498Z,9.50
2023-04-21T00:40:38.771Z,9.00
2023-04-21T00:41:12.331Z,9.30
2023-04-21T00:41:45.846Z,8.90
2023-04-21T00:42:19.380Z,9.20
2023-04-21T00:42:52.652Z,9.40
2023-04-21T00:43:26.328Z,9.50
2023-04-21T00:44:08.440Z,8.70
2023-04-21T00:44:44.233Z,9.00
2023-04-21T00:45:17.602Z,9.30
2023-04-21T00:45:50.897Z,9.10
2023-04-21T00:46:24.473Z,9.30
2023-04-21T00:46:57.948Z,9.20
2023-04-21T00:47:31.733Z,8.90
2023-04-21T00:48:05.492Z,8.70
2023-04-21T00:48:39.258Z,9.00
2023-04-21T00:49:13.915Z,9.20
2023-04-21T00:49:48.780Z,8.70
2023-04-21T00:50:23.246Z,8.50
2023-04-21T00:50:56.804Z,8.60
2023-04-21T00:51:33.372Z,9.50
2023-04-21T00:52:07.031Z,9.00
2023-04-21T00:52:44.317Z,8.80
2023-04-21T00:53:19.315Z,8.50
2023-04-21T00:53:52.796Z,8.60
2023-04-21T00:54:27.550Z,9.00
2023-04-21T00:55:01.394Z,8.70
2023-04-21T00:55:34.933Z,9.00
2023-04-21T00:56:09.665Z,8.60
2023-04-21T00:56:43.207Z,9.00
2023-04-21T00:57:17.202Z,8.70
2023-04-21T00:57:52.316Z,9.20
2023-04-21T00:58:25.740Z,8.90
2023-04-21T00:59:00.699Z,9.20
2023-04-21T00:59:34.887Z,9.00
2023-04-21T01:00:10.745Z,9.30
2023-04-21T01:00:44.804Z,9.40
2023-04-21T01:01:18.489Z,9.30
2023-04-21T01:01:53.280Z,9.50
2023-04-21T01:02:28.805Z,9.00
2023-04-21T01:03:02.680Z,9.10
2023-04-21T01:03:36.527Z,9.20
2023-04-21T01:04:10.705Z,9.50
2023-04-21T01:04:45.958Z,9.40
2023-04-21T01:05:20.192Z,9.40
2023-04-21T01:05:57.188Z,9.30
2023-04-21T01:06:36.961Z,9.30
2023-04-21T01:07:10.362Z,9.00
2023-04-21T01:07:44.455Z,8.70
2023-04-21T01:08:18.944Z,8.80
2023-04-21T01:08:54.027Z,8.70
2023-04-21T01:09:27.755Z,8.10
2023-04-21T01:10:01.153Z,9.00
2023-04-21T01:10:36.321Z,8.70
2023-04-21T01:11:14.278Z,8.80
2023-04-21T01:12:15.324Z,8.00
2023-04-21T01:12:49.003Z,8.30
2023-04-21T01:13:22.739Z,8.90
2023-04-21T01:13:58.289Z,8.30
2023-04-21T01:14:32.225Z,8.50
2023-04-21T01:15:06.397Z,8.60
2023-04-21T01:15:42.477Z,8.70
2023-04-21T01:16:19.463Z,8.40
2023-04-21T01:16:52.969Z,8.10
2023-04-21T01:17:27.216Z,8.20
2023-04-21T01:18:01.454Z,8.70
2023-04-21T01:18:36.699Z,8.00
2023-04-21T01:19:10.427Z,8.60
2023-04-21T01:19:46.965Z,8.40
2023-04-21T01:20:20.538Z,8.30
2023-04-21T01:20:54.037Z,8.80
2023-04-21T01:21:29.258Z,8.90
2023-04-21T01:22:07.593Z,8.90
2023-04-21T01:22:46.154Z,9.10
2023-04-21T01:23:22.424Z,8.90
2023-04-21T01:23:57.881Z,9.30
2023-04-21T01:24:48.259Z,9.30
2023-04-21T01:25:26.038Z,8.90
2023-04-21T01:26:01.837Z,9.00
2023-04-21T01:26:35.624Z,9.60
2023-04-21T01:27:14.802Z,9.50
2023-04-21T01:27:48.266Z,9.40
2023-04-21T01:28:26.410Z,9.90
2023-04-21T01:29:00.005Z,9.10
2023-04-21T01:29:35.108Z,9.00
2023-04-21T01:30:10.272Z,9.70
2023-04-21T01:30:43.681Z,9.50
2023-04-21T01:31:17.559Z,9.60
2023-04-21T01:31:51.012Z,9.70
2023-04-21T01:32:32.285Z,9.50
2023-04-21T01:33:05.845Z,9.40
2023-04-21T01:33:39.566Z,9.50
2023-04-21T01:34:13.214Z,9.40
2023-04-21T01:34:47.411Z,9.40
2023-04-21T01:35:21.012Z,9.80
2023-04-21T01:35:55.810Z,9.60
2023-04-21T01:36:29.265Z,9.50
2023-04-21T01:37:02.781Z,9.40
2023-04-21T01:37:36.439Z,9.50
2023-04-21T01:38:09.965Z,9.30
2023-04-21T01:38:43.448Z,9.10
2023-04-21T01:39:16.964Z,8.70
2023-04-21T01:39:54.630Z,8.50
2023-04-21T01:40:28.114Z,8.20
2023-04-21T01:41:01.634Z,8.90
2023-04-21T01:41:35.261Z,8.10
2023-04-21T01:42:09.384Z,8.60
2023-04-21T01:42:43.970Z,8.80
2023-04-21T01:43:23.201Z,8.50
2023-04-21T01:43:56.749Z,8.30
2023-04-21T01:44:31.036Z,8.60
2023-04-21T01:45:06.422Z,8.80
2023-04-21T01:45:39.971Z,8.70
2023-04-21T01:46:13.727Z,9.20
2023-04-21T01:46:47.412Z,9.00
2023-04-21T01:47:21.522Z,9.70
2023-04-21T01:47:55.055Z,9.60
2023-04-21T01:48:28.913Z,9.70
2023-04-21T01:51:22.984Z,8.70
2023-04-21T01:51:56.637Z,9.40
2023-04-21T01:52:30.106Z,9.60
2023-04-21T01:53:03.821Z,8.90
2023-04-21T01:53:37.809Z,9.20
2023-04-21T01:54:13.641Z,9.40
2023-04-21T01:54:47.477Z,8.90
2023-04-21T01:55:21.468Z,9.20
2023-04-21T01:55:55.197Z,9.20
2023-04-21T01:56:29.431Z,9.30
2023-04-21T01:57:04.032Z,9.10
2023-04-21T01:57:40.530Z,9.40
2023-04-21T01:58:14.314Z,9.40
2023-04-21T01:58:48.065Z,9.20
2023-04-21T01:59:22.021Z,9.10
2023-04-21T01:59:55.900Z,9.10
2023-04-21T02:00:29.507Z,9.50
2023-04-21T02:01:03.791Z,9.30
2023-04-21T02:01:38.018Z,9.50
2023-04-21T02:02:11.698Z,9.60
2023-04-21T02:02:45.448Z,9.40
2023-04-21T02:03:20.472Z,9.70
2023-04-21T02:03:54.417Z,9.50
2023-04-21T02:04:28.139Z,9.10
2023-04-21T02:05:01.902Z,9.80
2023-04-21T02:05:38.097Z,9.10
2023-04-21T02:06:11.938Z,10.00
2023-04-21T02:06:47.386Z,9.60
2023-04-21T02:07:20.969Z,9.50
2023-04-21T02:07:54.532Z,9.50
2023-04-21T02:08:29.109Z,9.40
2023-04-21T02:09:02.663Z,9.10
2023-04-21T02:09:37.955Z,9.10
2023-04-21T02:10:12.843Z,9.60
2023-04-21T02:10:46.533Z,9.50
2023-04-21T02:11:20.098Z,9.60
2023-04-21T02:11:55.474Z,9.80
2023-04-21T02:12:28.886Z,10.60
2023-04-21T02:13:02.253Z,9.90
2023-04-21T02:13:36.726Z,10.20
2023-04-21T02:14:10.388Z,10.80
2023-04-21T02:14:44.150Z,10.30
2023-04-21T02:15:20.496Z,10.10
2023-04-21T02:16:05.943Z,10.10
2023-04-21T02:16:46.352Z,9.50
2023-04-21T02:17:19.896Z,9.50
2023-04-21T02:17:53.995Z,9.90
2023-04-21T02:18:29.913Z,10.00
2023-04-21T02:19:03.538Z,10.10
2023-04-21T02:19:38.035Z,9.40
2023-04-21T02:20:12.700Z,9.70
2023-04-21T02:20:46.285Z,9.90
2023-04-21T02:21:24.577Z,9.30
2023-04-21T02:21:58.295Z,9.30
2023-04-21T02:22:32.768Z,9.30
2023-04-21T02:23:09.545Z,10.00
2023-04-21T02:23:48.010Z,9.80
2023-04-21T02:24:21.452Z,9.70
2023-04-21T02:24:55.390Z,9.60
2023-04-21T02:25:30.100Z,9.50
2023-04-21T02:26:03.634Z,10.00
2023-04-21T02:26:38.755Z,10.30
2023-04-21T02:27:12.239Z,10.00
2023-04-21T02:27:45.748Z,10.30
2023-04-21T02:28:18.994Z,10.80
2023-04-21T02:28:54.530Z,10.20
2023-04-21T02:29:28.295Z,10.00
2023-04-21T02:30:01.818Z,10.50
2023-04-21T02:30:35.874Z,10.70
2023-04-21T02:31:09.544Z,10.70
2023-04-21T02:31:56.529Z,10.70
2023-04-21T02:32:32.892Z,10.10
2023-04-21T02:33:06.779Z,10.30
2023-04-21T02:33:40.205Z,10.20
2023-04-21T02:34:13.560Z,10.20
2023-04-21T02:34:47.060Z,10.30
2023-04-21T02:35:20.830Z,10.20
2023-04-21T02:35:54.235Z,10.00
2023-04-21T02:36:28.198Z,9.90
2023-04-21T02:37:03.812Z,10.40
2023-04-21T02:37:37.212Z,9.60
2023-04-21T02:38:10.763Z,9.60
2023-04-21T02:38:44.276Z,9.50
2023-04-21T02:39:18.061Z,9.90
2023-04-21T02:39:51.668Z,9.60
2023-04-21T02:40:25.333Z,9.40
2023-04-21T02:40:58.976Z,9.10
2023-04-21T02:41:32.402Z,9.50
2023-04-21T02:42:07.226Z,9.80
2023-04-21T02:42:43.555Z,9.60
2023-04-21T02:43:17.852Z,9.30
2023-04-21T02:43:51.365Z,9.50
2023-04-21T02:44:24.774Z,9.80
2023-04-21T02:45:00.133Z,9.90
2023-04-21T02:45:34.190Z,9.60
2023-04-21T02:46:08.720Z,9.30
2023-04-21T02:46:42.481Z,9.80
2023-04-21T02:47:17.150Z,9.90
2023-04-21T02:47:50.708Z,9.70
2023-04-21T02:48:24.099Z,9.70
2023-04-21T02:48:58.002Z,9.60
2023-04-21T02:49:31.473Z,9.80
2023-04-21T02:50:05.180Z,10.40
2023-04-21T02:50:40.414Z,10.50
2023-04-21T02:51:15.823Z,10.40
2023-04-21T02:51:49.151Z,10.70
2023-04-21T02:52:22.976Z,10.70
2023-04-21T02:52:56.430Z,10.90
2023-04-21T02:53:29.855Z,11.40
2023-04-21T02:54:03.627Z,11.00
2023-04-21T02:54:36.894Z,11.70
2023-04-21T02:55:10.276Z,11.50
2023-04-21T02:55:44.174Z,11.70
2023-04-21T02:56:17.513Z,12.10
2023-04-21T02:56:51.609Z,12.10
2023-04-21T02:57:24.866Z,11.20
2023-04-21T02:57:59.781Z,11.00
2023-04-21T02:58:33.220Z,11.40
2023-04-21T02:59:06.538Z,10.70
2023-04-21T02:59:39.824Z,11.20
2023-04-21T03:00:14.367Z,10.70
2023-04-21T03:00:48.003Z,10.30
2023-04-21T03:01:21.582Z,10.80
2023-04-21T03:01:55.034Z,10.60
2023-04-21T03:02:28.584Z,10.60
2023-04-21T03:03:02.492Z,10.20
2023-04-21T03:03:36.662Z,10.40
2023-04-21T03:04:10.310Z,10.50
2023-04-21T03:04:44.638Z,10.40
2023-04-21T03:05:18.154Z,10.00
2023-04-21T03:05:59.589Z,9.60
2023-04-21T03:06:33.734Z,9.00
2023-04-21T03:07:13.147Z,9.70
2023-04-21T03:07:46.735Z,9.80
2023-04-21T03:08:20.043Z,10.10
2023-04-21T03:08:53.455Z,10.30
2023-04-21T03:09:26.819Z,10.50
2023-04-21T03:10:00.160Z,10.70
2023-04-21T03:10:34.278Z,10.30
2023-04-21T03:11:08.102Z,10.50
2023-04-21T03:11:41.677Z,11.20
2023-04-21T03:12:15.159Z,10.70
2023-04-21T03:12:48.499Z,10.70
2023-04-21T03:13:21.784Z,11.30
2023-04-21T03:13:56.657Z,11.10
2023-04-21T03:14:30.000Z,10.70
2023-04-21T03:15:03.703Z,11.50
2023-04-21T03:15:37.061Z,11.80
2023-04-21T03:16:10.325Z,11.10
2023-04-21T03:16:43.872Z,11.70
2023-04-21T03:17:19.104Z,12.00
2023-04-21T03:17:53.903Z,11.20
2023-04-21T03:18:29.897Z,12.00
2023-04-21T03:19:03.582Z,11.90
2023-04-21T03:19:36.965Z,12.40
2023-04-21T03:20:11.044Z,12.20
2023-04-21T03:20:44.904Z,12.50
2023-04-21T03:21:18.363Z,12.60
2023-04-21T03:21:51.751Z,13.60
2023-04-21T03:22:25.212Z,12.50
2023-04-21T03:22:58.670Z,12.60
2023-04-21T03:23:31.991Z,12.00
2023-04-21T03:24:07.657Z,12.80
2023-04-21T03:24:41.024Z,12.60
2023-04-21T03:25:14.621Z,12.60
2023-04-21T03:25:48.048Z,12.60
2023-04-21T03:26:21.514Z,12.20
2023-04-21T03:26:55.623Z,12.30
2023-04-21T03:27:29.238Z,11.80
2023-04-21T03:28:03.828Z,11.90
2023-04-21T03:28:37.162Z,11.20
2023-04-21T03:29:10.657Z,11.10
2023-04-21T03:29:44.064Z,10.60
2023-04-21T03:30:17.627Z,10.60
2023-04-21T03:30:50.899Z,9.90
2023-04-21T03:31:24.240Z,10.40
2023-04-21T03:31:57.738Z,10.50
2023-04-21T03:32:31.950Z,9.70
2023-04-21T03:33:05.410Z,10.40
2023-04-21T03:33:38.827Z,9.40
2023-04-21T03:34:12.217Z,9.90
2023-04-21T03:34:45.805Z,10.40
2023-04-21T03:35:19.150Z,10.30
2023-04-21T03:35:52.504Z,11.10
2023-04-21T03:36:26.069Z,11.70
2023-04-21T03:36:59.602Z,11.40
2023-04-21T03:37:33.083Z,11.30
2023-04-21T03:38:06.623Z,11.90
2023-04-21T03:38:39.934Z,11.60
2023-04-21T03:39:52.677Z,12.00
2023-04-21T03:40:26.240Z,12.50
2023-04-21T03:40:59.594Z,12.50
2023-04-21T03:41:36.453Z,12.60
2023-04-21T03:42:10.178Z,12.50
2023-04-21T03:42:43.692Z,12.30
2023-04-21T03:43:17.179Z,12.90
2023-04-21T03:43:52.410Z,12.50
2023-04-21T03:44:27.394Z,13.10
2023-04-21T03:45:04.980Z,12.30
2023-04-21T03:45:39.838Z,11.90
2023-04-21T03:46:22.715Z,12.50
2023-04-21T03:46:56.259Z,11.40
2023-04-21T03:47:30.391Z,11.60
2023-04-21T03:48:05.056Z,11.90
2023-04-21T03:48:38.467Z,11.90
2023-04-21T03:49:11.972Z,12.00
2023-04-21T03:49:45.555Z,10.50
2023-04-21T03:50:19.092Z,10.80
2023-04-21T03:50:52.525Z,10.90
2023-04-21T03:51:27.280Z,10.80
2023-04-21T03:52:00.703Z,11.10
2023-04-21T03:52:34.238Z,11.50
2023-04-21T03:53:07.707Z,11.20
2023-04-21T03:53:42.219Z,11.40
2023-04-21T03:54:16.147Z,11.30
2023-04-21T03:54:49.667Z,11.60
2023-04-21T03:55:23.004Z,11.70
2023-04-21T03:55:56.461Z,11.80
2023-04-21T03:56:29.923Z,11.90
2023-04-21T03:57:03.363Z,12.10
2023-04-21T03:57:36.595Z,12.30
2023-04-21T03:58:09.934Z,12.10
2023-04-21T03:58:43.306Z,12.40
2023-04-21T03:59:16.813Z,12.30
2023-04-21T03:59:50.293Z,12.60
2023-04-21T04:00:23.862Z,12.70
2023-04-21T04:00:57.324Z,12.60
2023-04-21T04:01:30.681Z,12.90
2023-04-21T04:02:04.295Z,13.60
2023-04-21T04:02:38.108Z,13.80
2023-04-21T04:03:11.875Z,13.20
2023-04-21T04:03:48.917Z,13.60
2023-04-21T04:04:22.767Z,13.50
2023-04-21T04:04:56.607Z,13.70
2023-04-21T04:05:30.032Z,13.60
2023-04-21T04:06:04.541Z,14.80
2023-04-21T04:06:37.785Z,14.50
2023-04-21T04:07:11.134Z,14.10
2023-04-21T04:07:48.281Z,14.70
2023-04-21T04:08:21.976Z,14.30
2023-04-21T04:08:55.466Z,13.90
2023-04-21T04:09:29.664Z,14.50
2023-04-21T04:10:03.021Z,14.80
2023-04-21T04:10:36.349Z,14.00
2023-04-21T04:11:09.693Z,15.00
2023-04-21T04:11:43.011Z,14.80
2023-04-21T04:12:16.284Z,14.40
2023-04-21T04:12:49.865Z,14.70
2023-04-21T04:13:24.870Z,14.90
2023-04-21T04:13:58.956Z,14.70
2023-04-21T04:14:32.262Z,14.50
2023-04-21T04:15:06.346Z,13.30
2023-04-21T04:15:39.680Z,14.00
2023-04-21T04:16:13.197Z,14.40
2023-04-21T04:16:46.526Z,14.80
2023-04-21T04:17:20.027Z,14.50
2023-04-21T04:17:53.604Z,14.60
2023-04-21T04:18:27.195Z,14.00
2023-04-21T04:19:00.685Z,13.90
2023-04-21T04:19:34.371Z,14.10
2023-04-21T04:20:08.673Z,13.90
2023-04-21T04:20:42.147Z,12.90
2023-04-21T04:21:15.628Z,13.70
2023-04-21T04:21:49.362Z,13.40
2023-04-21T04:22:22.756Z,13.10
2023-04-21T04:22:56.442Z,12.80
2023-04-21T04:23:29.780Z,12.60
2023-04-21T04:24:03.736Z,13.00
2023-04-21T04:24:37.121Z,12.50
2023-04-21T04:25:10.525Z,12.90
2023-04-21T04:25:43.826Z,12.80
2023-04-21T04:26:17.267Z,13.10
2023-04-21T04:26:50.855Z,12.80
2023-04-21T04:27:24.270Z,12.80
2023-04-21T04:28:07.029Z,13.10
2023-04-21T04:28:40.557Z,12.90
2023-04-21T04:29:14.321Z,13.40
2023-04-21T04:29:49.572Z,14.20
2023-04-21T04:30:24.299Z,13.90
2023-04-21T04:30:57.845Z,14.10
2023-04-21T04:31:31.334Z,14.00
2023-04-21T04:32:06.765Z,14.30
2023-04-21T04:32:40.209Z,14.60
2023-04-21T04:33:13.631Z,14.30
2023-04-21T04:33:47.032Z,14.80
2023-04-21T04:34:20.568Z,14.10
2023-04-21T04:34:56.107Z,14.70
2023-04-21T04:35:29.481Z,14.20
2023-04-21T04:36:02.808Z,14.30
2023-04-21T04:36:36.674Z,14.50
2023-04-21T04:37:11.421Z,14.60
2023-04-21T04:37:45.873Z,13.90
2023-04-21T04:38:19.293Z,14.20
2023-04-21T04:38:52.666Z,13.60
2023-04-21T04:39:26.328Z,13.90
2023-04-21T04:39:59.906Z,15.80
2023-04-21T04:40:33.917Z,14.30
2023-04-21T04:41:09.260Z,14.30
2023-04-21T04:41:42.579Z,14.10
2023-04-21T04:42:15.990Z,13.80
2023-04-21T04:42:49.540Z,13.30
2023-04-21T04:43:23.077Z,13.10
2023-04-21T04:44:00.878Z,13.30
2023-04-21T04:44:35.815Z,12.70
2023-04-21T04:45:09.791Z,12.90
2023-04-21T04:45:44.087Z,12.60
2023-04-21T04:46:20.651Z,13.20
2023-04-21T04:46:54.445Z,13.40
2023-04-21T04:47:28.596Z,13.80
2023-04-21T04:48:02.130Z,12.60
2023-04-21T04:48:35.823Z,14.00
2023-04-21T04:49:09.203Z,13.20
2023-04-21T04:49:42.492Z,13.30
2023-04-21T04:50:15.889Z,13.90
2023-04-21T04:50:49.620Z,14.00
2023-04-21T04:51:23.882Z,14.80
2023-04-21T04:51:57.375Z,14.30
2023-04-21T04:52:30.600Z,14.00
2023-04-21T04:53:03.883Z,14.50
2023-04-21T04:53:37.405Z,14.40
2023-04-21T04:54:11.017Z,13.10
2023-04-21T04:54:44.390Z,13.90
2023-04-21T04:55:17.820Z,13.90
2023-04-21T04:55:51.281Z,14.20
2023-04-21T04:56:24.552Z,14.70
2023-04-21T04:56:58.314Z,15.20
2023-04-21T04:57:31.840Z,15.00
2023-04-21T04:58:05.242Z,14.10
2023-04-21T04:58:38.555Z,14.60
2023-04-21T04:59:12.611Z,14.10
2023-04-21T04:59:46.649Z,13.90
2023-04-21T05:00:20.462Z,14.20
2023-04-21T05:00:54.552Z,13.40
2023-04-21T05:01:31.068Z,14.00
2023-04-21T05:02:04.721Z,12.80
2023-04-21T05:02:39.082Z,12.90
2023-04-21T05:03:12.762Z,12.90
2023-04-21T05:03:46.621Z,13.00
2023-04-21T05:04:20.972Z,13.30
2023-04-21T05:04:55.050Z,12.60
2023-04-21T05:05:28.656Z,12.00
2023-04-21T05:06:02.049Z,12.90
2023-04-21T05:06:35.553Z,13.00
2023-04-21T05:07:08.881Z,12.20
2023-04-21T05:07:42.262Z,12.90
2023-04-21T05:08:17.805Z,13.50
2023-04-21T05:08:51.794Z,12.70
2023-04-21T05:09:26.166Z,12.20
2023-04-21T05:09:59.610Z,13.00
2023-04-21T05:10:33.079Z,12.10
2023-04-21T05:11:07.085Z,12.50
2023-04-21T05:11:40.475Z,12.50
2023-04-21T05:12:13.942Z,12.20
2023-04-21T05:12:47.520Z,12.00
2023-04-21T05:13:20.972Z,12.20
2023-04-21T05:13:54.450Z,13.20
2023-04-21T05:14:30.253Z,12.70
2023-04-21T05:15:04.259Z,12.60
2023-04-21T05:15:37.806Z,12.50
2023-04-21T05:16:11.866Z,13.00
2023-04-21T05:16:45.393Z,12.80
2023-04-21T05:17:18.797Z,12.20
2023-04-21T05:17:52.154Z,12.80
2023-04-21T05:18:25.894Z,12.40
2023-04-21T05:19:02.052Z,13.20
2023-04-21T05:19:37.762Z,12.60
2023-04-21T05:20:12.201Z,13.00
2023-04-21T05:20:45.830Z,12.90
2023-04-21T05:21:28.905Z,12.40
2023-04-21T05:22:02.447Z,11.70
2023-04-21T05:22:38.996Z,11.50
2023-04-21T05:23:12.369Z,12.10
2023-04-21T05:23:45.947Z,12.10
2023-04-21T05:24:24.501Z,11.50
2023-04-21T05:24:57.851Z,10.90
2023-04-21T05:25:31.175Z,11.60
2023-04-21T05:26:05.066Z,11.40
2023-04-21T05:26:38.594Z,10.60
2023-04-21T05:27:11.935Z,10.80
2023-04-21T05:27:45.207Z,11.00
2023-04-21T05:28:18.570Z,10.60
2023-04-21T05:28:51.954Z,11.10
2023-04-21T05:29:25.866Z,10.60
2023-04-21T05:29:59.216Z,11.40
2023-04-21T05:30:32.524Z,11.30
2023-04-21T05:31:08.248Z,11.20
2023-04-21T05:31:41.635Z,10.90
2023-04-21T05:32:15.583Z,11.10
2023-04-21T05:32:48.901Z,10.50
2023-04-21T05:33:22.588Z,10.80
2023-04-21T05:33:56.382Z,10.90
2023-04-21T05:34:29.756Z,11.00
2023-04-21T05:35:03.578Z,10.90
2023-04-21T05:35:37.984Z,11.30
2023-04-21T05:36:12.157Z,10.90
2023-04-21T05:36:45.807Z,11.60
2023-04-21T05:37:19.387Z,10.60
2023-04-21T05:37:52.769Z,11.80
2023-04-21T05:38:27.595Z,12.30
2023-04-21T05:39:00.944Z,11.70
2023-04-21T05:39:34.273Z,12.40
2023-04-21T05:40:08.080Z,12.40
2023-04-21T05:40:41.456Z,12.50
2023-04-21T05:41:14.836Z,12.90
2023-04-21T05:41:48.144Z,13.30
2023-04-21T05:42:22.208Z,13.10
2023-04-21T05:42:55.541Z,13.40
2023-04-21T05:43:29.013Z,13.50
2023-04-21T05:44:02.354Z,13.60
2023-04-21T05:44:37.531Z,13.00
2023-04-21T05:45:12.012Z,13.00
2023-04-21T05:45:45.488Z,13.80
2023-04-21T05:46:18.914Z,13.30
2023-04-21T05:46:52.424Z,13.90
2023-04-21T05:47:25.940Z,12.70
2023-04-21T05:47:59.359Z,13.30
2023-04-21T05:48:32.735Z,13.40
2023-04-21T05:49:07.172Z,12.80
2023-04-21T05:49:40.600Z,13.00
2023-04-21T05:50:13.948Z,12.90
2023-04-21T05:50:47.330Z,13.50
2023-04-21T05:51:20.679Z,13.40
2023-04-21T05:51:53.990Z,13.00
2023-04-21T05:52:27.369Z,13.10
2023-04-21T05:53:01.005Z,13.30
2023-04-21T05:53:34.825Z,12.60
2023-04-21T05:54:08.181Z,12.80
2023-04-21T05:54:41.481Z,12.80
2023-04-21T05:55:14.746Z,12.00
2023-04-21T05:55:48.154Z,12.10
2023-04-21T05:56:21.602Z,12.70
2023-04-21T05:56:55.021Z,12.60
2023-04-21T05:57:28.291Z,12.20
2023-04-21T05:58:01.638Z,12.30
2023-04-21T05:58:35.341Z,12.40
2023-04-21T05:59:08.796Z,12.80
2023-04-21T05:59:42.079Z,12.60
2023-04-21T06:00:16.852Z,11.90
2023-04-21T06:00:50.558Z,12.10
2023-04-21T06:01:23.909Z,11.90
2023-04-21T06:01:58.876Z,11.90
2023-04-21T06:02:32.285Z,12.10
2023-04-21T06:03:05.917Z,12.40
2023-04-21T06:03:41.979Z,12.40
2023-04-21T06:04:18.094Z,12.00
2023-04-21T06:04:51.855Z,11.90
2023-04-21T06:05:28.356Z,12.50
2023-04-21T06:06:05.518Z,12.00
2023-04-21T06:06:39.113Z,11.70
2023-04-21T06:07:14.128Z,11.70
2023-04-21T06:07:48.075Z,12.60
2023-04-21T06:08:21.693Z,12.10
2023-04-21T06:08:55.363Z,11.50
2023-04-21T06:09:28.766Z,11.50
2023-04-21T06:10:02.055Z,11.60
2023-04-21T06:10:38.826Z,11.80
2023-04-21T06:11:12.407Z,11.60
2023-04-21T06:11:45.962Z,11.60
2023-04-21T06:12:19.511Z,11.20
2023-04-21T06:12:52.986Z,11.50
2023-04-21T06:13:29.019Z,12.00
2023-04-21T06:14:02.462Z,11.10
2023-04-21T06:14:36.681Z,11.20
2023-04-21T06:15:10.635Z,11.60
2023-04-21T06:15:44.357Z,11.50
2023-04-21T06:16:17.941Z,11.40
2023-04-21T06:16:51.315Z,11.00
2023-04-21T06:17:24.674Z,11.50
2023-04-21T06:17:58.137Z,11.20
2023-04-21T06:18:31.560Z,11.20
2023-04-21T06:19:05.151Z,10.80
2023-04-21T06:19:40.426Z,10.80
2023-04-21T06:20:15.587Z,10.80
2023-04-21T06:20:53.278Z,11.60
2023-04-21T06:21:26.722Z,10.80
2023-04-21T06:22:00.138Z,10.60
2023-04-21T06:22:33.986Z,9.90
2023-04-21T06:23:07.487Z,10.70
2023-04-21T06:23:42.118Z,10.80
2023-04-21T06:24:24.726Z,10.80
2023-04-21T06:24:58.745Z,9.60
2023-04-21T06:25:32.456Z,10.10
2023-04-21T06:26:07.535Z,10.10
2023-04-21T06:26:40.972Z,10.60
2023-04-21T06:27:14.931Z,9.90
2023-04-21T06:27:48.459Z,10.20
2023-04-21T06:28:22.230Z,10.00
2023-04-21T06:28:55.672Z,10.20
2023-04-21T06:29:29.140Z,10.20
2023-04-21T06:30:02.514Z,10.90
2023-04-21T06:30:36.227Z,10.40
2023-04-21T06:31:10.294Z,10.60
2023-04-21T06:31:43.643Z,10.80
2023-04-21T06:32:16.978Z,10.00
2023-04-21T06:32:50.343Z,10.40
2023-04-21T06:33:23.723Z,10.10
2023-04-21T06:33:57.026Z,10.10
2023-04-21T06:34:30.326Z,9.90
2023-04-21T06:35:03.999Z,9.80
2023-04-21T06:35:39.839Z,10.60
2023-04-21T06:36:16.204Z,9.20
2023-04-21T06:36:50.969Z,10.00
2023-04-21T06:37:24.268Z,9.30
2023-04-21T06:37:57.592Z,9.60
2023-04-21T06:38:31.055Z,9.60
2023-04-21T06:39:05.162Z,9.20
2023-04-21T06:39:38.446Z,9.80
2023-04-21T06:40:12.940Z,9.70
2023-04-21T06:40:46.508Z,9.40
2023-04-21T06:41:19.992Z,9.00
2023-04-21T06:41:53.361Z,9.70
2023-04-21T06:42:26.695Z,9.00
2023-04-21T06:43:02.065Z,8.90
2023-04-21T06:43:35.770Z,9.10
2023-04-21T06:44:09.102Z,8.80
2023-04-21T06:44:42.421Z,8.10
2023-04-21T06:45:15.951Z,8.40
2023-04-21T06:45:49.366Z,7.90
2023-04-21T06:46:22.920Z,8.20
2023-04-21T06:46:56.463Z,8.30
2023-04-21T06:47:29.866Z,7.60
2023-04-21T06:48:03.495Z,7.70
2023-04-21T06:48:37.066Z,7.80
2023-04-21T06:49:10.790Z,7.70
2023-04-21T06:49:44.050Z,8.00
2023-04-21T06:50:17.567Z,7.30
2023-04-21T06:50:50.956Z,6.80
2023-04-21T06:51:24.356Z,7.00
2023-04-21T06:51:57.593Z,6.90
2023-04-21T06:52:30.822Z,7.10
2023-04-21T06:53:04.363Z,6.60
2023-04-21T06:53:38.478Z,6.70
2023-04-21T06:54:11.714Z,6.60
2023-04-21T06:54:45.052Z,7.30
2023-04-21T06:55:19.116Z,6.90
2023-04-21T06:55:53.691Z,6.70
2023-04-21T06:56:28.035Z,6.80
2023-04-21T06:57:01.309Z,7.20
2023-04-21T06:57:34.983Z,6.90
2023-04-21T06:58:08.414Z,6.60
2023-04-21T06:58:41.731Z,6.80
2023-04-21T06:59:15.007Z,6.70
2023-04-21T06:59:53.567Z,6.40
2023-04-21T07:00:27.187Z,7.00
2023-04-21T07:01:00.700Z,6.30
2023-04-21T07:01:34.255Z,6.90
2023-04-21T07:02:07.706Z,6.70
2023-04-21T07:02:42.407Z,7.00
2023-04-21T07:03:16.007Z,6.70
2023-04-21T07:03:49.748Z,6.40
2023-04-21T07:04:23.265Z,6.20
2023-04-21T07:04:56.533Z,6.10
2023-04-21T07:05:30.006Z,6.40
2023-04-21T07:06:03.984Z,5.80
2023-04-21T07:06:37.415Z,6.40
2023-04-21T07:07:10.932Z,6.20
2023-04-21T07:07:44.617Z,6.10
2023-04-21T07:08:18.076Z,6.00
2023-04-21T07:08:51.730Z,5.70
2023-04-21T07:09:25.279Z,5.70
2023-04-21T07:09:58.838Z,5.80
2023-04-21T07:10:32.352Z,6.00
2023-04-21T07:11:06.126Z,5.80
2023-04-21T07:11:39.920Z,5.90
2023-04-21T07:12:13.560Z,6.20
2023-04-21T07:12:47.335Z,5.70
2023-04-21T07:13:21.127Z,5.70
2023-04-21T07:13:55.894Z,5.70
2023-04-21T07:14:29.509Z,5.00
2023-04-21T07:15:03.263Z,5.80
2023-04-21T07:15:37.043Z,5.60
2023-04-21T07:16:10.751Z,5.40
2023-04-21T07:16:45.643Z,5.30
2023-04-21T07:17:18.936Z,5.70
2023-04-21T07:17:52.213Z,4.90
2023-04-21T07:18:27.684Z,5.40
2023-04-21T07:19:01.013Z,5.00
2023-04-21T07:19:34.558Z,5.00
2023-04-21T07:20:08.267Z,4.80
2023-04-21T07:20:41.747Z,4.90
2023-04-21T07:21:15.058Z,5.00
2023-04-21T07:21:48.530Z,5.10
2023-04-21T07:22:22.012Z,4.80
2023-04-21T07:22:55.510Z,4.70
2023-04-21T07:23:28.877Z,5.20
2023-04-21T07:24:04.921Z,5.10
2023-04-21T07:24:38.345Z,4.80
2023-04-21T07:25:12.808Z,4.90
2023-04-21T07:25:47.285Z,5.10
2023-04-21T07:26:20.755Z,5.10
2023-04-21T07:26:54.235Z,5.00
2023-04-21T07:27:27.752Z,5.00
2023-04-21T07:28:01.092Z,4.90
2023-04-21T07:28:34.522Z,5.00
2023-04-21T07:29:07.827Z,4.70
2023-04-21T07:29:41.430Z,5.10
2023-04-21T07:30:15.252Z,4.70
2023-04-21T07:30:48.665Z,4.70